createdAt,value
2018-07-09T00:01:15.572Z,101950.43
2018-07-09T00:03:45.507Z,101946.26
2018-07-09T00:06:15.564Z,101940.36
2018-07-09T00:08:45.185Z,101947.52
2018-07-09T00:11:15.801Z,101947.44
2018-07-09T00:13:46.657Z,101945.25
2018-07-09T00:16:16.606Z,101948.92
2018-07-09T00:18:46.903Z,101943.58
2018-07-09T00:21:16.494Z,101937.23
2018-07-09T00:23:46.953Z,101941.27
2018-07-09T00:26:16.432Z,101948.83
2018-07-09T00:28:48.161Z,101945.39
2018-07-09T00:31:17.298Z,101944.90
2018-07-09T00:33:47.930Z,101949.06
2018-07-09T00:36:17.471Z,101944.89
2018-07-09T00:38:47.324Z,101949.45
2018-07-09T00:41:18.291Z,101944.44
2018-07-09T00:43:49.070Z,101947.31
2018-07-09T00:46:18.621Z,101945.56
2018-07-09T00:48:50.336Z,101945.06
2018-07-09T00:51:21.065Z,101949.22
2018-07-09T00:53:52.042Z,101950.89
2018-07-09T00:56:21.317Z,101940.38
2018-07-09T00:58:51.046Z,101945.75
2018-07-09T01:01:20.829Z,101942.33
2018-07-09T01:03:50.307Z,101943.13
2018-07-09T01:06:19.903Z,101945.14
2018-07-09T01:08:49.562Z,101945.50
2018-07-09T01:11:36.066Z,101941.78
2018-07-09T01:14:06.067Z,101938.93
2018-07-09T01:16:35.568Z,101938.37
2018-07-09T01:19:05.092Z,101948.41
2018-07-09T01:21:34.598Z,101940.13
2018-07-09T01:24:04.293Z,101945.09
2018-07-09T01:26:33.743Z,101937.58
2018-07-09T01:29:02.895Z,101937.98
2018-07-09T01:31:32.424Z,101931.67
2018-07-09T01:34:01.906Z,101930.01
2018-07-09T01:36:31.305Z,101929.11
2018-07-09T01:39:01.033Z,101931.26
2018-07-09T01:41:30.510Z,101924.46
2018-07-09T01:43:59.969Z,101922.05
2018-07-09T01:46:29.549Z,101914.87
2018-07-09T01:48:59.057Z,101914.78
2018-07-09T01:51:28.476Z,101917.30
2018-07-09T01:53:57.934Z,101914.78
2018-07-09T01:56:27.525Z,101926.41
2018-07-09T01:58:57.086Z,101917.59
2018-07-09T02:01:26.709Z,101917.53
2018-07-09T02:05:25.226Z,101920.14
2018-07-09T02:07:54.368Z,101917.58
2018-07-09T02:10:23.867Z,101924.66
2018-07-09T02:12:53.367Z,101917.65
2018-07-09T02:15:22.995Z,101913.88
2018-07-09T02:17:52.521Z,101910.06
2018-07-09T02:20:22.024Z,101909.17
2018-07-09T02:22:51.494Z,101900.01
2018-07-09T02:25:21.240Z,101902.56
2018-07-09T02:27:50.825Z,101898.31
2018-07-09T02:30:20.288Z,101896.61
2018-07-09T02:32:49.586Z,101902.52
2018-07-09T02:35:18.929Z,101902.52
2018-07-09T02:37:48.559Z,101902.57
2018-07-09T02:40:18.070Z,101896.81
2018-07-09T02:42:48.080Z,101900.61
2018-07-09T02:45:17.515Z,101890.55
2018-07-09T02:47:46.991Z,101892.56
2018-07-09T02:50:16.490Z,101887.23
2018-07-09T02:52:46.010Z,101879.63
2018-07-09T02:55:15.740Z,101878.52
2018-07-09T02:57:45.418Z,101880.19
2018-07-09T03:00:14.975Z,101877.37
2018-07-09T03:02:44.148Z,101885.24
2018-07-09T03:05:13.583Z,101889.44
2018-07-09T03:07:42.945Z,101899.95
2018-07-09T03:10:12.667Z,101898.70
2018-07-09T03:12:42.272Z,101896.51
2018-07-09T03:15:11.885Z,101899.56
2018-07-09T03:17:41.410Z,101902.02
2018-07-09T03:20:10.629Z,101898.20
2018-07-09T03:22:40.073Z,101901.11
2018-07-09T03:25:09.629Z,101904.82
2018-07-09T03:27:39.033Z,101904.52
2018-07-09T03:30:09.201Z,101903.36
2018-07-09T03:32:38.842Z,101902.91
2018-07-09T03:35:08.273Z,101906.31
2018-07-09T03:37:37.496Z,101896.88
2018-07-09T03:40:07.529Z,101892.85
2018-07-09T03:42:37.029Z,101885.82
2018-07-09T03:45:06.579Z,101888.83
2018-07-09T03:47:36.065Z,101882.77
2018-07-09T03:50:05.697Z,101881.59
2018-07-09T03:52:35.091Z,101877.10
2018-07-09T03:55:04.838Z,101870.91
2018-07-09T03:57:34.109Z,101877.70
2018-07-09T04:00:03.796Z,101878.61
2018-07-09T04:02:33.380Z,101876.14
2018-07-09T04:05:02.930Z,101868.66
2018-07-09T04:07:32.472Z,101869.23
2018-07-09T04:10:01.718Z,101870.55
2018-07-09T04:12:31.230Z,101865.53
2018-07-09T04:15:00.872Z,101865.62
2018-07-09T04:17:30.801Z,101858.97
2018-07-09T04:20:00.216Z,101862.82
2018-07-09T04:22:29.368Z,101856.19
2018-07-09T04:24:59.267Z,101860.86
2018-07-09T04:27:29.097Z,101855.95
2018-07-09T04:29:58.849Z,101860.94
2018-07-09T04:32:28.529Z,101854.17
2018-07-09T04:34:58.120Z,101860.86
2018-07-09T04:37:27.869Z,101854.23
2018-07-09T04:40:01.894Z,101858.09
2018-07-09T04:42:31.900Z,101853.48
2018-07-09T04:45:01.210Z,101857.69
2018-07-09T04:47:30.377Z,101859.83
2018-07-09T04:50:02.449Z,101855.30
2018-07-09T04:52:32.242Z,101861.55
2018-07-09T04:55:02.044Z,101859.52
2018-07-09T04:57:31.673Z,101855.77
2018-07-09T05:00:02.115Z,101853.30
2018-07-09T05:02:31.553Z,101855.05
2018-07-09T05:05:00.817Z,101857.14
2018-07-09T05:07:30.750Z,101855.11
2018-07-09T05:10:00.213Z,101857.19
2018-07-09T05:12:29.758Z,101853.04
2018-07-09T05:14:59.094Z,101832.09
2018-07-09T05:17:28.642Z,101827.92
2018-07-09T05:19:58.269Z,101826.27
2018-07-09T05:22:27.920Z,101829.99
2018-07-09T05:24:58.646Z,101824.56
2018-07-09T05:27:27.908Z,101827.95
2018-07-09T05:29:57.508Z,101827.56
2018-07-09T05:32:28.517Z,101817.94
2018-07-09T05:34:58.055Z,101816.73
2018-07-09T05:37:27.599Z,101814.66
2018-07-09T05:39:57.006Z,101817.58
2018-07-09T05:42:26.452Z,101815.93
2018-07-09T05:44:56.025Z,101817.23
2018-07-09T05:47:25.687Z,101810.13
2018-07-09T05:49:55.683Z,101813.91
2018-07-09T05:52:25.261Z,101813.48
2018-07-09T05:54:54.661Z,101816.42
2018-07-09T05:57:24.353Z,101811.83
2018-07-09T05:59:53.801Z,101808.06
2018-07-09T06:02:23.470Z,101808.03
2018-07-09T06:04:53.890Z,101805.11
2018-07-09T06:07:23.306Z,101802.16
2018-07-09T06:09:53.004Z,101805.09
2018-07-09T06:12:22.489Z,101797.13
2018-07-09T06:14:52.001Z,101789.98
2018-07-09T06:17:21.640Z,101795.87
2018-07-09T06:19:51.078Z,101793.75
2018-07-09T06:22:20.586Z,101789.16
2018-07-09T06:24:50.852Z,101789.13
2018-07-09T06:27:20.382Z,101789.95
2018-07-09T06:29:49.989Z,101786.57
2018-07-09T06:32:19.595Z,101792.42
2018-07-09T06:34:49.175Z,101793.69
2018-07-09T06:37:18.699Z,101789.06
2018-07-09T06:39:48.192Z,101784.84
2018-07-09T06:42:17.717Z,101780.21
2018-07-09T06:44:47.309Z,101784.75
2018-07-09T06:47:16.927Z,101784.74
2018-07-09T06:49:46.394Z,101790.23
2018-07-09T06:52:16.017Z,101786.50
2018-07-09T06:54:45.826Z,101788.59
2018-07-09T06:57:15.424Z,101778.97
2018-07-09T06:59:45.113Z,101774.78
2018-07-09T07:02:14.702Z,101771.88
2018-07-09T07:04:44.170Z,101778.18
2018-07-09T07:07:14.315Z,101775.25
2018-07-09T07:09:43.793Z,101775.20
2018-07-09T07:12:13.406Z,101774.75
2018-07-09T07:14:42.928Z,101767.20
2018-07-09T07:17:12.468Z,101763.02
2018-07-09T07:19:41.834Z,101762.56
2018-07-09T07:22:11.356Z,101754.47
2018-07-09T07:24:40.854Z,101747.63
2018-07-09T07:27:10.337Z,101740.89
2018-07-09T07:29:40.458Z,101743.77
2018-07-09T07:32:09.996Z,101742.97
2018-07-09T07:34:39.618Z,101742.53
2018-07-09T07:37:09.029Z,101741.27
2018-07-09T07:39:38.808Z,101743.17
2018-07-09T07:42:08.313Z,101730.17
2018-07-09T07:44:37.848Z,101727.39
2018-07-09T07:47:07.300Z,101724.34
2018-07-09T07:49:36.906Z,101714.58
2018-07-09T07:52:07.468Z,101719.50
2018-07-09T07:54:36.960Z,101715.72
2018-07-09T07:57:06.979Z,101716.91
2018-07-09T07:59:36.475Z,101716.52
2018-07-09T08:02:06.054Z,101726.72
2018-07-09T08:04:35.597Z,101711.02
2018-07-09T08:07:05.034Z,101715.09
2018-07-09T08:09:34.591Z,101705.34
2018-07-09T08:12:59.660Z,101713.38
2018-07-09T08:14:33.521Z,101714.19
2018-07-09T08:17:03.548Z,101706.88
2018-07-09T08:19:33.097Z,101705.89
2018-07-09T08:22:02.265Z,101707.26
2018-07-09T08:24:31.787Z,101704.39
2018-07-09T08:27:01.821Z,101709.09
2018-07-09T08:29:31.139Z,101697.97
2018-07-09T08:32:00.487Z,101694.09
2018-07-09T08:34:31.074Z,101689.28
2018-07-09T08:37:00.743Z,101693.78
2018-07-09T08:39:30.319Z,101688.44
2018-07-09T08:41:59.850Z,101692.08
2018-07-09T08:44:29.364Z,101693.13
2018-07-09T08:46:58.841Z,101689.58
2018-07-09T08:49:28.506Z,101704.83
2018-07-09T08:51:58.375Z,101698.77
2018-07-09T08:54:27.909Z,101698.64
2018-07-09T08:56:57.393Z,101697.70
2018-07-09T08:59:26.897Z,101698.16
2018-07-09T09:01:56.333Z,101702.84
2018-07-09T09:04:26.038Z,101687.51
2018-07-09T09:06:55.848Z,101699.51
2018-07-09T09:09:25.433Z,101693.60
2018-07-09T09:11:55.044Z,101697.48
2018-07-09T09:14:24.660Z,101703.80
2018-07-09T09:16:54.262Z,101716.36
2018-07-09T09:19:23.831Z,101716.08
2018-07-09T09:21:53.451Z,101697.08
2018-07-09T09:24:23.010Z,101703.44
2018-07-09T09:26:52.590Z,101689.25
2018-07-09T09:29:22.064Z,101701.83
2018-07-09T09:31:51.575Z,101689.53
2018-07-09T09:34:21.707Z,101693.67
2018-07-09T09:36:52.249Z,101693.12
2018-07-09T09:39:21.758Z,101686.47
2018-07-09T09:41:51.186Z,101684.52
2018-07-09T09:44:21.210Z,101687.84
2018-07-09T09:46:50.710Z,101688.41
2018-07-09T09:49:20.198Z,101691.18
2018-07-09T09:51:49.698Z,101688.69
2018-07-09T09:54:19.212Z,101693.25
2018-07-09T09:56:48.783Z,101687.73
2018-07-09T09:59:18.233Z,101688.41
2018-07-09T10:01:47.706Z,101691.05
2018-07-09T10:04:17.313Z,101690.41
2018-07-09T10:06:46.864Z,101687.57
2018-07-09T10:09:16.378Z,101689.17
2018-07-09T10:11:45.932Z,101681.51
2018-07-09T10:14:16.281Z,101688.89
2018-07-09T10:16:45.724Z,101693.60
2018-07-09T10:19:15.708Z,101675.56
2018-07-09T10:21:45.262Z,101672.92
2018-07-09T10:24:14.535Z,101682.41
2018-07-09T10:26:44.098Z,101677.03
2018-07-09T10:29:13.519Z,101692.36
2018-07-09T10:31:43.734Z,101688.19
2018-07-09T10:34:13.498Z,101682.59
2018-07-09T10:36:42.946Z,101693.28
2018-07-09T10:39:12.446Z,101690.22
2018-07-09T10:41:42.115Z,101697.44
2018-07-09T10:44:14.972Z,101694.66
2018-07-09T10:46:44.537Z,101692.33
2018-07-09T10:49:14.120Z,101685.42
2018-07-09T10:51:43.559Z,101692.80
2018-07-09T10:54:13.131Z,101698.31
2018-07-09T10:56:42.609Z,101693.33
2018-07-09T10:59:12.187Z,101691.61
2018-07-09T11:01:43.498Z,101689.02
2018-07-09T11:04:12.748Z,101695.65
2018-07-09T11:06:43.108Z,101692.28
2018-07-09T11:09:12.569Z,101683.28
2018-07-09T11:11:42.314Z,101692.22
2018-07-09T11:14:11.889Z,101693.06
2018-07-09T11:16:41.536Z,101695.40
2018-07-09T11:19:11.108Z,101690.45
2018-07-09T11:21:41.317Z,101687.50
2018-07-09T11:24:10.815Z,101687.27
2018-07-09T11:26:40.078Z,101694.87
2018-07-09T11:29:09.556Z,101704.11
2018-07-09T11:31:39.101Z,101707.38
2018-07-09T11:34:08.669Z,101692.94
2018-07-09T11:36:39.423Z,101697.02
2018-07-09T11:39:09.671Z,101694.00
2018-07-09T11:41:39.247Z,101698.53
2018-07-09T11:44:08.858Z,101698.84
2018-07-09T11:46:38.398Z,101703.90
2018-07-09T11:49:07.984Z,101687.69
2018-07-09T11:51:37.505Z,101690.56
2018-07-09T11:54:07.340Z,101688.95
2018-07-09T11:56:36.486Z,101684.94
2018-07-09T11:59:05.970Z,101683.95
2018-07-09T12:01:35.605Z,101689.50
2018-07-09T12:04:05.205Z,101688.99
2018-07-09T12:06:34.857Z,101691.66
2018-07-09T12:09:05.380Z,101695.32
2018-07-09T12:11:35.444Z,101691.64
2018-07-09T12:14:05.390Z,101682.13
2018-07-09T12:16:34.986Z,101685.64
2018-07-09T12:19:04.435Z,101679.18
2018-07-09T12:21:34.109Z,101687.40
2018-07-09T12:24:03.245Z,101684.73
2018-07-09T12:26:32.690Z,101683.64
2018-07-09T12:29:02.918Z,101683.22
2018-07-09T12:31:32.558Z,101683.92
2018-07-09T12:34:02.085Z,101685.36
2018-07-09T12:36:31.775Z,101685.16
2018-07-09T12:39:01.507Z,101697.70
2018-07-09T12:41:30.989Z,101684.10
2018-07-09T12:44:00.491Z,101699.11
2018-07-09T12:46:31.354Z,101696.41
2018-07-09T12:49:01.976Z,101691.48
2018-07-09T12:51:31.450Z,101699.23
2018-07-09T12:54:01.307Z,101682.84
2018-07-09T12:56:30.730Z,101695.58
2018-07-09T12:58:59.885Z,101687.99
2018-07-09T13:01:30.100Z,101686.27
2018-07-09T13:03:59.622Z,101695.42
2018-07-09T13:06:29.084Z,101688.27
2018-07-09T13:08:58.730Z,101688.70
2018-07-09T13:11:29.260Z,101687.75
2018-07-09T13:14:00.081Z,101692.17
2018-07-09T13:16:30.740Z,101690.84
2018-07-09T13:19:00.591Z,101702.15
2018-07-09T13:21:29.864Z,101700.96
2018-07-09T13:23:59.381Z,101684.29
2018-07-09T13:26:28.986Z,101690.65
2018-07-09T13:28:59.074Z,101678.60
2018-07-09T13:31:28.973Z,101690.17
2018-07-09T13:33:58.842Z,101697.45
2018-07-09T13:36:28.428Z,101693.64
2018-07-09T13:38:57.894Z,101693.22
2018-07-09T13:41:27.530Z,101693.59
2018-07-09T13:43:57.119Z,101687.05
2018-07-09T13:46:26.668Z,101689.58
2018-07-09T13:48:56.199Z,101688.42
2018-07-09T13:51:25.573Z,101691.72
2018-07-09T13:53:55.068Z,101687.97
2018-07-09T13:56:24.581Z,101689.75
2018-07-09T13:58:54.241Z,101688.13
2018-07-09T14:01:23.809Z,101680.12
2018-07-09T14:03:54.245Z,101695.20
2018-07-09T14:06:24.021Z,101687.19
2018-07-09T14:08:54.872Z,101681.28
2018-07-09T14:11:24.349Z,101684.66
2018-07-09T14:13:55.196Z,101680.87
2018-07-09T14:16:24.674Z,101674.50
2018-07-09T14:18:56.180Z,101668.30
2018-07-09T14:21:26.332Z,101666.42
2018-07-09T14:23:56.610Z,101664.69
2018-07-09T14:26:26.861Z,101659.94
2018-07-09T14:28:57.611Z,101662.06
2018-07-09T14:31:26.933Z,101658.42
2018-07-09T14:33:56.360Z,101659.34
2018-07-09T14:36:25.939Z,101654.35
2018-07-09T14:38:55.200Z,101658.15
2018-07-09T14:41:25.048Z,101649.67
2018-07-09T14:43:54.746Z,101650.11
2018-07-09T14:46:24.219Z,101639.63
2018-07-09T14:48:53.669Z,101642.84
2018-07-09T14:51:22.867Z,101635.59
2018-07-09T14:53:53.312Z,101633.19
2018-07-09T14:56:23.424Z,101629.75
2018-07-09T14:58:52.746Z,101624.36
2018-07-09T15:01:22.785Z,101622.34
2018-07-09T15:03:56.385Z,101631.23
2018-07-09T15:06:26.288Z,101630.18
2018-07-09T15:08:56.289Z,101637.73
2018-07-09T15:11:26.639Z,101630.16
2018-07-09T15:13:57.368Z,101630.92
2018-07-09T15:16:27.798Z,101617.94
2018-07-09T15:18:57.384Z,101617.94
2018-07-09T15:21:26.862Z,101617.06
2018-07-09T15:23:56.325Z,101604.45
2018-07-09T15:26:25.940Z,101604.06
2018-07-09T15:28:56.204Z,101610.53
2018-07-09T15:31:25.700Z,101597.48
2018-07-09T15:33:55.265Z,101585.13
2018-07-09T15:36:24.825Z,101590.97
2018-07-09T15:38:54.383Z,101580.96
2018-07-09T15:41:23.902Z,101588.72
2018-07-09T15:44:01.969Z,101571.77
2018-07-09T15:46:31.652Z,101570.94
2018-07-09T15:49:01.745Z,101573.63
2018-07-09T15:51:31.178Z,101575.03
2018-07-09T15:54:01.360Z,101570.70
2018-07-09T15:56:30.938Z,101592.78
2018-07-09T15:59:00.874Z,101582.89
2018-07-09T16:01:31.346Z,101590.02
2018-07-09T16:04:00.812Z,101595.09
2018-07-09T16:06:30.362Z,101581.27
2018-07-09T16:08:59.959Z,101569.98
2018-07-09T16:11:29.449Z,101562.00
2018-07-09T16:13:58.886Z,101564.11
2018-07-09T16:16:28.369Z,101559.75
2018-07-09T16:18:57.848Z,101565.14
2018-07-09T16:21:27.792Z,101557.16
2018-07-09T16:23:57.378Z,101560.52
2018-07-09T16:26:27.046Z,101554.60
2018-07-09T16:28:56.756Z,101553.02
2018-07-09T16:31:26.989Z,101560.05
2018-07-09T16:33:56.248Z,101556.51
2018-07-09T16:36:25.857Z,101552.44
2018-07-09T16:38:55.272Z,101551.63
2018-07-09T16:41:26.353Z,101554.44
2018-07-09T16:43:55.949Z,101540.19
2018-07-09T16:46:25.969Z,101532.34
2018-07-09T16:48:56.037Z,101536.64
2018-07-09T16:51:26.757Z,101542.94
2018-07-09T16:53:56.318Z,101539.73
2018-07-09T16:56:26.018Z,101543.52
2018-07-09T16:58:55.611Z,101530.06
2018-07-09T17:01:25.278Z,101535.92
2018-07-09T17:03:55.536Z,101536.76
2018-07-09T17:06:25.338Z,101533.81
2018-07-09T17:08:54.843Z,101537.61
2018-07-09T17:11:24.474Z,101532.63
2018-07-09T17:13:54.129Z,101531.02
2018-07-09T17:16:24.826Z,101533.58
2018-07-09T17:18:54.369Z,101518.08
2018-07-09T17:21:23.744Z,101521.39
2018-07-09T17:23:53.322Z,101512.18
2018-07-09T17:26:22.935Z,101514.22
2018-07-09T17:28:52.405Z,101509.60
2018-07-09T17:31:23.259Z,101504.67
2018-07-09T17:33:52.792Z,101505.48
2018-07-09T17:36:22.448Z,101505.11
2018-07-09T17:38:52.255Z,101508.45
2018-07-09T17:41:21.769Z,101511.44
2018-07-09T17:43:51.807Z,101511.84
2018-07-09T17:46:21.360Z,101515.23
2018-07-09T17:48:51.453Z,101503.50
2018-07-09T17:51:21.032Z,101493.38
2018-07-09T17:53:51.117Z,101496.76
2018-07-09T17:56:21.221Z,101506.02
2018-07-09T17:58:50.821Z,101493.84
2018-07-09T18:01:20.345Z,101495.09
2018-07-09T18:03:50.799Z,101506.88
2018-07-09T18:06:20.268Z,101506.05
2018-07-09T18:08:50.729Z,101499.73
2018-07-09T18:11:20.074Z,101508.98
2018-07-09T18:13:49.532Z,101506.91
2018-07-09T18:16:19.028Z,101495.14
2018-07-09T18:18:49.441Z,101512.77
2018-07-09T18:21:19.069Z,101514.88
2018-07-09T18:23:48.584Z,101531.25
2018-07-09T18:26:18.672Z,101535.44
2018-07-09T18:28:48.166Z,101530.02
2018-07-09T18:31:17.668Z,101530.01
2018-07-09T18:33:47.304Z,101512.81
2018-07-09T18:36:16.919Z,101521.63
2018-07-09T18:38:47.164Z,101519.53
2018-07-09T18:41:16.613Z,101528.36
2018-07-09T18:43:46.807Z,101514.48
2018-07-09T18:46:16.560Z,101517.84
2018-07-09T18:48:46.026Z,101522.05
2018-07-09T18:51:15.616Z,101517.83
2018-07-09T18:53:45.212Z,101517.00
2018-07-09T18:56:14.656Z,101518.28
2018-07-09T18:58:44.336Z,101503.63
2018-07-09T19:01:13.889Z,101507.37
2018-07-09T19:03:43.509Z,101500.69
2018-07-09T19:07:28.690Z,101496.06
2018-07-09T19:09:58.532Z,101495.24
2018-07-09T19:12:33.303Z,101492.28
2018-07-09T19:15:04.507Z,101486.44
2018-07-09T19:18:18.517Z,101485.17
2018-07-09T19:22:01.165Z,101490.61
2018-07-09T19:24:29.509Z,101489.38
2018-07-09T19:26:58.385Z,101480.98
2018-07-09T19:29:26.399Z,101480.14
2018-07-09T19:31:54.203Z,101473.47
2018-07-09T19:34:21.975Z,101477.23
2018-07-09T19:36:50.227Z,101472.20
2018-07-09T19:39:18.443Z,101475.56
2018-07-09T19:41:46.987Z,101469.25
2018-07-09T19:44:14.678Z,101477.66
2018-07-09T19:46:43.054Z,101478.91
2018-07-09T19:49:11.658Z,101476.38
2018-07-09T19:51:39.445Z,101478.48
2018-07-09T19:54:07.241Z,101478.89
2018-07-09T19:56:35.013Z,101471.37
2018-07-09T19:59:02.803Z,101479.73
2018-07-09T20:01:30.993Z,101474.70
2018-07-09T20:03:59.613Z,101478.05
2018-07-09T20:06:27.425Z,101466.76
2018-07-09T20:09:00.465Z,101463.84
2018-07-09T20:11:33.597Z,101460.47
2018-07-09T20:14:06.701Z,101463.42
2018-07-09T20:16:40.810Z,101468.02
2018-07-09T20:19:09.040Z,101473.88
2018-07-09T20:21:39.377Z,101481.83
2018-07-09T20:24:07.167Z,101480.56
2018-07-09T20:26:35.138Z,101475.14
2018-07-09T20:29:02.917Z,101476.38
2018-07-09T20:31:30.682Z,101466.30
2018-07-09T20:33:59.315Z,101465.48
2018-07-09T20:36:27.304Z,101461.28
2018-07-09T20:38:55.085Z,101467.98
2018-07-09T20:41:22.852Z,101460.05
2018-07-09T20:43:51.259Z,101462.55
2018-07-09T20:46:19.294Z,101461.30
2018-07-09T20:48:47.136Z,101457.09
2018-07-09T20:51:14.975Z,101457.53
2018-07-09T20:53:43.633Z,101460.05
2018-07-09T20:56:12.391Z,101454.19
2018-07-09T20:58:40.231Z,101450.84
2018-07-09T21:01:07.991Z,101453.77
2018-07-09T21:03:35.935Z,101451.68
2018-07-09T21:06:03.704Z,101449.58
2018-07-09T21:08:31.503Z,101442.89
2018-07-09T21:10:59.291Z,101437.86
2018-07-09T21:13:30.735Z,101442.05
2018-07-09T21:15:58.714Z,101439.11
2018-07-09T21:18:26.908Z,101437.03
2018-07-09T21:20:54.670Z,101437.86
2018-07-09T21:23:22.445Z,101435.75
2018-07-09T21:25:50.217Z,101439.09
2018-07-09T21:28:18.077Z,101427.81
2018-07-09T21:30:45.851Z,101423.59
2018-07-09T21:33:13.610Z,101424.40
2018-07-09T21:35:41.443Z,101415.59
2018-07-09T21:38:09.221Z,101414.74
2018-07-09T21:40:37.017Z,101408.85
2018-07-09T21:43:05.078Z,101389.20
2018-07-09T21:45:32.852Z,101390.02
2018-07-09T21:48:10.554Z,101379.55
2018-07-09T21:50:29.160Z,101373.71
2018-07-09T21:52:56.942Z,101365.33
2018-07-09T21:55:24.710Z,101366.97
2018-07-09T21:57:52.496Z,101364.45
2018-07-09T22:00:20.265Z,101364.02
2018-07-09T22:02:48.220Z,101368.22
2018-07-09T22:05:15.985Z,101366.48
2018-07-09T22:07:44.027Z,101375.27
2018-07-09T22:10:11.808Z,101369.41
2018-07-09T22:12:39.892Z,101372.75
2018-07-09T22:15:07.650Z,101377.30
2018-07-09T22:17:35.406Z,101376.07
2018-07-09T22:20:03.287Z,101369.77
2018-07-09T22:22:31.391Z,101364.28
2018-07-09T22:24:59.156Z,101358.45
2018-07-09T22:27:26.960Z,101355.04
2018-07-09T22:29:54.741Z,101358.39
2018-07-09T22:32:24.156Z,101361.27
2018-07-09T22:34:54.080Z,101355.00
2018-07-09T22:37:23.815Z,101348.67
2018-07-09T22:39:53.325Z,101351.56
2018-07-09T22:42:22.771Z,101346.14
2018-07-09T22:44:52.443Z,101343.64
2018-07-09T22:47:22.018Z,101335.22
2018-07-09T22:49:51.638Z,101333.09
2018-07-09T22:52:21.090Z,101341.03
2018-07-09T22:55:00.178Z,101345.22
2018-07-09T22:57:29.702Z,101343.58
2018-07-09T22:59:59.173Z,101349.05
2018-07-09T23:02:28.821Z,101351.17
2018-07-09T23:04:58.317Z,101352.42
2018-07-09T23:07:27.784Z,101351.63
2018-07-09T23:10:13.406Z,101358.24
2018-07-09T23:16:38.163Z,101359.07
2018-07-09T23:19:21.026Z,101340.62
2018-07-09T23:22:06.257Z,101353.62
2018-07-09T23:24:35.029Z,101355.67
2018-07-09T23:27:03.009Z,101350.22
2018-07-09T23:29:31.066Z,101342.70
2018-07-09T23:31:58.835Z,101337.73
2018-07-09T23:34:26.602Z,101330.18
2018-07-09T23:36:54.562Z,101323.07
2018-07-09T23:39:22.345Z,101327.18
2018-07-09T23:41:51.201Z,101321.31
2018-07-09T23:44:19.002Z,101321.36
2018-07-09T23:46:46.911Z,101320.92
2018-07-09T23:49:14.688Z,101328.87
2018-07-09T23:51:42.537Z,101324.32
2018-07-09T23:54:10.301Z,101316.70
2018-07-09T23:59:31.704Z,101318.09
